Archival Weather

Central Park

Central Park, New York (KNYC)

Report from: Thursday, September 21, 2023 9:51 PM EDT
Current time: Sunday, February 25, 2024 5:06 PM EST

Current weather – Weather history – Daily summaries
Weather forecast

Temperature17.8°C (64.0°F)
Dew point10.6°C (51.1°F)
Winds Calm
Visibility10 mi. (16.1 km)
Clouds Sky clear
Altimeter30.31 in.Hg (1026 mB)
Relative humidity63 %
Density altitude98 ft. (30 m)
Sea-level pressure102.6 kPa (1026 mB, 30.28 in.Hg)
Remarks Fully automated report
System requires maintenance
Automated weather observing station with precipitation discriminator
Flight conditions Visual Meteorological Conditions
Raw dataKNYC 220151Z AUTO 00000KT 10SM CLR 18/11 A3031 RMK AO2 SLP255 T01780106 $
An error has occurred. This application may no longer respond until reloaded. Reload 🗙